createdAt,value
2022-11-24T00:03:40.492Z,4.67
2022-11-24T00:08:45.117Z,4.10
2022-11-24T00:13:47.644Z,5.30
2022-11-24T00:18:51.487Z,3.97
2022-11-24T00:23:54.029Z,4.83
2022-11-24T00:29:00.309Z,4.53
2022-11-24T00:34:04.678Z,4.07
2022-11-24T00:39:10.238Z,5.03
2022-11-24T00:44:12.582Z,4.97
2022-11-24T00:49:14.845Z,4.73
2022-11-24T00:54:17.129Z,5.47
2022-11-24T00:59:19.403Z,4.37
2022-11-24T01:04:21.597Z,4.37
2022-11-24T01:09:23.899Z,4.00
2022-11-24T01:14:26.160Z,3.87
2022-11-24T01:19:28.544Z,6.00
2022-11-24T01:24:30.933Z,4.90
2022-11-24T01:29:33.299Z,4.07
2022-11-24T01:34:35.807Z,4.50
2022-11-24T01:39:38.132Z,4.73
2022-11-24T01:44:41.230Z,4.70
2022-11-24T01:49:55.087Z,4.87
2022-11-24T01:55:00.046Z,5.10
2022-11-24T02:00:08.793Z,5.00
2022-11-24T02:05:34.756Z,4.47
2022-11-24T02:10:37.618Z,4.20
2022-11-24T02:15:40.014Z,4.60
2022-11-24T02:20:42.431Z,4.40
2022-11-24T02:26:30.321Z,4.50
2022-11-24T02:31:32.937Z,4.50
2022-11-24T02:36:35.185Z,4.33
2022-11-24T02:41:38.072Z,4.63
2022-11-24T02:46:40.287Z,4.73
2022-11-24T02:51:42.542Z,4.20
2022-11-24T02:56:44.753Z,4.63
2022-11-24T03:01:47.181Z,5.63
2022-11-24T03:06:49.562Z,5.20
2022-11-24T03:11:51.828Z,4.37
2022-11-24T03:16:54.067Z,4.70
2022-11-24T03:21:56.296Z,5.07
2022-11-24T03:26:58.711Z,5.77
2022-11-24T03:32:01.050Z,6.03
2022-11-24T03:37:03.373Z,4.83
2022-11-24T03:42:05.799Z,4.50
2022-11-24T03:47:08.218Z,5.50
2022-11-24T03:52:10.442Z,5.10
2022-11-24T03:57:12.876Z,5.00
2022-11-24T04:02:15.218Z,4.97
2022-11-24T04:07:18.067Z,4.63
2022-11-24T04:12:38.725Z,5.10
2022-11-24T04:17:41.055Z,5.03
2022-11-24T04:22:43.670Z,6.33
2022-11-24T04:27:46.334Z,5.10
2022-11-24T04:32:56.454Z,5.20
2022-11-24T04:38:02.798Z,6.27
2022-11-24T04:43:05.052Z,5.13
2022-11-24T04:48:07.409Z,5.87
2022-11-24T04:53:10.599Z,5.33
2022-11-24T04:58:13.135Z,5.60
2022-11-24T05:03:15.379Z,5.63
2022-11-24T05:08:17.565Z,4.53
2022-11-24T05:13:19.825Z,5.43
2022-11-24T05:18:22.516Z,5.73
2022-11-24T05:23:24.858Z,5.60
2022-11-24T05:28:27.502Z,5.23
2022-11-24T05:33:30.420Z,5.90
2022-11-24T05:38:33.221Z,5.17
2022-11-24T05:43:35.488Z,6.07
2022-11-24T05:48:37.713Z,5.13
2022-11-24T05:53:39.895Z,5.77
2022-11-24T05:58:43.314Z,5.67
2022-11-24T06:03:45.544Z,6.20
2022-11-24T06:08:47.892Z,5.93
2022-11-24T06:13:50.180Z,5.47
2022-11-24T06:18:52.568Z,6.10
2022-11-24T06:23:54.855Z,6.50
2022-11-24T06:28:57.259Z,6.53
2022-11-24T06:34:00.077Z,5.83
2022-11-24T06:39:02.969Z,5.27
2022-11-24T06:44:05.601Z,5.20
2022-11-24T06:49:08.024Z,6.23
2022-11-24T06:54:14.613Z,5.97
2022-11-24T06:59:20.966Z,5.63
2022-11-24T07:04:23.244Z,7.37
2022-11-24T07:09:25.405Z,5.50
2022-11-24T07:14:27.533Z,5.20
2022-11-24T07:19:29.755Z,5.43
2022-11-24T07:24:32.097Z,6.33
2022-11-24T07:29:37.562Z,6.47
2022-11-24T07:34:39.920Z,6.40
2022-11-24T07:39:42.388Z,6.83
2022-11-24T07:44:44.696Z,7.03
2022-11-24T07:49:46.856Z,5.80
2022-11-24T07:54:49.056Z,6.03
2022-11-24T07:59:51.253Z,6.30
2022-11-24T08:04:53.464Z,6.70
2022-11-24T08:09:55.732Z,7.47
2022-11-24T08:14:58.107Z,8.00
2022-11-24T08:20:00.306Z,8.67
2022-11-24T08:25:02.559Z,9.03
2022-11-24T08:30:05.614Z,6.50
2022-11-24T08:35:13.777Z,7.43
2022-11-24T08:40:17.163Z,6.23
2022-11-24T08:45:21.422Z,7.13
2022-11-24T08:50:25.670Z,6.83
2022-11-24T08:55:27.873Z,6.47
2022-11-24T09:00:33.270Z,7.83
2022-11-24T09:05:52.608Z,7.00
2022-11-24T09:11:00.360Z,7.75
2022-11-24T09:16:04.807Z,6.97
2022-11-24T09:21:19.000Z,7.73
2022-11-24T09:26:23.938Z,7.50
2022-11-24T09:31:29.765Z,7.80
2022-11-24T09:36:32.351Z,7.50
2022-11-24T09:41:50.909Z,7.60
2022-11-24T09:47:29.764Z,7.43
2022-11-24T09:52:42.124Z,7.23
2022-11-24T09:57:44.644Z,7.23
2022-11-24T10:02:49.627Z,8.77
2022-11-24T10:08:22.298Z,8.60
2022-11-24T10:13:41.525Z,6.70
2022-11-24T10:19:02.029Z,7.43
2022-11-24T10:24:16.332Z,6.33
2022-11-24T10:29:41.279Z,6.97
2022-11-24T10:34:50.822Z,7.17
2022-11-24T10:40:40.651Z,7.73
2022-11-24T10:45:40.750Z,7.03
2022-11-24T10:50:43.443Z,8.00
2022-11-24T10:55:55.103Z,7.60
2022-11-24T11:01:03.423Z,7.73
2022-11-24T11:06:14.150Z,8.30
2022-11-24T11:11:22.027Z,7.63
2022-11-24T11:16:27.296Z,8.43
2022-11-24T11:21:34.681Z,8.27
2022-11-24T11:26:38.880Z,8.93
2022-11-24T11:31:41.397Z,8.53
2022-11-24T11:36:48.558Z,8.17
2022-11-24T11:41:56.407Z,7.30
2022-11-24T11:46:59.586Z,9.50
2022-11-24T11:52:17.024Z,10.80
2022-11-24T11:57:31.799Z,10.80
2022-11-24T12:02:39.448Z,9.73
2022-11-24T12:07:58.440Z,9.27
2022-11-24T12:13:14.142Z,9.20
2022-11-24T12:18:59.130Z,9.10
2022-11-24T12:24:13.593Z,8.13
2022-11-24T12:29:31.101Z,8.67
2022-11-24T12:34:52.949Z,9.67
2022-11-24T12:40:13.358Z,10.13
2022-11-24T12:45:17.897Z,10.70
2022-11-24T12:50:22.909Z,9.47
2022-11-24T12:55:28.161Z,9.50
2022-11-24T13:00:53.637Z,8.30
2022-11-24T13:06:11.221Z,8.80
2022-11-24T13:11:22.669Z,10.17
2022-11-24T13:16:36.089Z,10.03
2022-11-24T13:21:43.214Z,9.30
2022-11-24T13:27:13.045Z,8.70
2022-11-24T13:32:15.429Z,9.85
2022-11-24T13:37:33.615Z,7.93
2022-11-24T13:43:01.608Z,8.17
2022-11-24T13:48:24.030Z,8.07
2022-11-24T13:53:56.045Z,7.23
2022-11-24T13:59:15.821Z,8.20
2022-11-24T14:09:36.618Z,6.87
2022-11-24T14:14:39.086Z,6.73
2022-11-24T14:19:42.785Z,6.50
2022-11-24T14:24:47.040Z,5.97
2022-11-24T14:29:58.089Z,7.10
2022-11-24T14:35:00.315Z,5.90
2022-11-24T14:40:02.608Z,6.10
2022-11-24T14:45:05.525Z,5.37
2022-11-24T14:50:19.588Z,5.40
2022-11-24T14:55:30.035Z,6.37
2022-11-24T15:00:33.084Z,5.87
2022-11-24T15:05:56.323Z,5.90
2022-11-24T15:11:02.804Z,5.93
2022-11-24T15:16:19.668Z,5.83
2022-11-24T15:21:35.758Z,6.40
2022-11-24T15:26:41.984Z,6.00
2022-11-24T15:31:49.345Z,5.70
2022-11-24T15:36:54.542Z,6.47
2022-11-24T15:41:56.790Z,6.60
2022-11-24T15:46:59.100Z,6.37
2022-11-24T15:52:01.445Z,7.00
2022-11-24T15:57:03.920Z,5.63
2022-11-24T16:02:06.242Z,6.93
2022-11-24T16:07:15.088Z,7.03
2022-11-24T16:12:17.546Z,8.75
2022-11-24T16:17:20.041Z,6.20
2022-11-24T16:22:22.365Z,7.23
2022-11-24T16:27:24.732Z,7.90
2022-11-24T16:32:27.077Z,7.53
2022-11-24T16:37:29.465Z,6.57
2022-11-24T16:42:32.038Z,6.67
2022-11-24T16:47:39.686Z,5.77
2022-11-24T16:52:41.836Z,7.47
2022-11-24T16:57:44.102Z,7.17
2022-11-24T17:02:52.597Z,8.10
2022-11-24T17:07:55.805Z,6.25
2022-11-24T17:12:58.027Z,5.00
2022-11-24T17:23:22.557Z,5.37
2022-11-24T17:28:24.801Z,4.67
2022-11-24T17:33:28.607Z,4.77
2022-11-24T17:38:31.490Z,5.90
2022-11-24T17:43:33.780Z,5.47
2022-11-24T17:48:36.253Z,5.37
2022-11-24T17:53:39.398Z,5.77
2022-11-24T17:58:43.301Z,5.67
2022-11-24T18:03:48.979Z,5.33
2022-11-24T18:08:57.352Z,5.17
2022-11-24T18:14:02.407Z,4.97
2022-11-24T18:19:10.174Z,5.10
2022-11-24T18:24:14.117Z,3.77
2022-11-24T18:29:16.370Z,4.43
2022-11-24T18:34:19.151Z,4.00
2022-11-24T18:39:22.437Z,3.90
2022-11-24T18:44:24.656Z,4.20
2022-11-24T18:49:26.992Z,4.27
2022-11-24T18:54:29.402Z,3.47
2022-11-24T18:59:31.898Z,4.00
2022-11-24T19:04:34.394Z,3.87
2022-11-24T19:09:37.040Z,3.07
2022-11-24T19:14:39.202Z,3.00
2022-11-24T19:19:41.378Z,4.07
2022-11-24T19:24:45.407Z,3.87
2022-11-24T19:29:48.617Z,4.03
2022-11-24T19:34:50.807Z,5.07
2022-11-24T19:39:53.240Z,5.47
2022-11-24T19:44:56.792Z,6.37
2022-11-24T19:49:59.179Z,6.67
2022-11-24T19:55:02.366Z,5.27
2022-11-24T20:00:07.531Z,3.77
2022-11-24T20:05:09.723Z,3.73
2022-11-24T20:10:11.944Z,3.90
2022-11-24T20:15:15.278Z,4.07
2022-11-24T20:20:17.532Z,4.07
2022-11-24T20:25:20.514Z,3.17
2022-11-24T20:30:22.789Z,3.17
2022-11-24T20:35:24.968Z,3.40
2022-11-24T20:40:27.676Z,3.20
2022-11-24T20:45:30.130Z,3.70
2022-11-24T20:50:32.377Z,3.73
2022-11-24T20:55:34.865Z,3.40
2022-11-24T21:00:37.116Z,2.77
2022-11-24T21:05:39.426Z,3.07
2022-11-24T21:10:41.651Z,3.00
2022-11-24T21:15:44.013Z,2.30
2022-11-24T21:20:46.628Z,3.00
2022-11-24T21:25:48.813Z,2.53
2022-11-24T21:30:50.995Z,2.83
2022-11-24T21:35:53.294Z,4.30
2022-11-24T21:41:00.441Z,3.13
2022-11-24T21:46:04.397Z,3.60
2022-11-24T21:51:11.402Z,3.77
2022-11-24T21:56:16.287Z,4.03
2022-11-24T22:01:20.290Z,3.97
2022-11-24T22:06:23.147Z,3.13
2022-11-24T22:11:26.092Z,4.63
2022-11-24T22:16:28.564Z,4.00
2022-11-24T22:21:31.026Z,3.20
2022-11-24T22:26:33.407Z,3.40
2022-11-24T22:31:35.694Z,2.50
2022-11-24T22:36:38.040Z,2.63
2022-11-24T22:41:40.199Z,2.20
2022-11-24T22:46:42.396Z,2.60
2022-11-24T22:51:44.576Z,3.40
2022-11-24T22:56:46.868Z,2.57
2022-11-24T23:01:49.171Z,2.70
2022-11-24T23:06:51.507Z,2.57
2022-11-24T23:11:53.682Z,2.50
2022-11-24T23:16:56.053Z,3.43
2022-11-24T23:21:58.255Z,2.50
2022-11-24T23:27:00.510Z,3.17
2022-11-24T23:32:02.998Z,2.43
2022-11-24T23:37:05.307Z,2.33
2022-11-24T23:42:07.702Z,2.20
2022-11-24T23:47:09.915Z,2.37
2022-11-24T23:52:12.078Z,2.43
2022-11-24T23:57:14.264Z,2.20
